• Join FlightAware (Why Join?)
  • Login
  • US Flag 
04:42PM EDT


 

Airport Tracker/Info


-or-


 

Live Flight TrackerFlight Track Log ✈ AMX203 ✈ 02-Aug-2013 ✈ MMTC / TRC - MMMX / MEX

Flight Track Log - Related Links

Times and Time Zones

All times are in EDT time to prevent confusion due to time zone crossing. See the AMX203 flight status page for this flight to view local times or setup timezone preferences in your user account.

Time Position Orientation Groundspeed Altitude Reporting Facility
EDT Latitude Longitude Course Direction KTS MPH feet Rate Location/Type
08:39PM 25.5800 -103.4230 315° West 173 199 4,600  Level FlightAware
08:39PM 25.5910 -103.4360 313° West 183 211 5,100 1,320 Climbing FlightAware
08:40PM 25.6050 -103.4500 318° Northwest 211 243 5,500 1,140 Climbing FlightAware
08:40PM 25.6280 -103.4760 314° West 258 297 6,100 1,200 Climbing FlightAware
08:40PM 25.6410 -103.4900 316° Northwest 279 321 6,400 1,620 Climbing FlightAware
08:41PM 25.6550 -103.5040 318° Northwest 288 331 6,900 2,280 Climbing FlightAware
08:41PM 25.6610 -103.5080 329° Northwest 290 334 7,200 2,820 Climbing FlightAware
08:41PM 25.6830 -103.5130 348° North 291 335 7,900 1,020 Climbing FlightAware
08:41PM 25.7110 -103.5150 356° North 291 335 7,900 1,020 Level FlightAware
08:44PM 25.3867 -103.2725 146° Southeast  Level Estimated
08:45PM 25.2369 -103.1610 146° Southeast  Level Estimated
08:46PM 25.0870 -103.0498 146° Southeast  Level Estimated
08:47PM 24.9371 -102.9389 146° Southeast  Level Estimated
08:48PM 24.7870 -102.8282 146° Southeast  Level Estimated
08:49PM 24.6369 -102.7178 146° Southeast  Level Estimated
08:50PM 24.4867 -102.6077 146° Southeast  Level Estimated
08:51PM 24.3364 -102.4978 146° Southeast  Level Estimated
08:52PM 24.1860 -102.3883 146° Southeast  Level Estimated
08:53PM 24.0356 -102.2789 146° Southeast  Level Estimated
08:54PM 23.8850 -102.1698 146° Southeast  Level Estimated
08:55PM 23.7344 -102.0610 147° Southeast  Level Estimated
08:56PM 23.5838 -101.9524 147° Southeast  Level Estimated
08:57PM 23.4330 -101.8440 147° Southeast  Level Estimated
08:58PM 23.2822 -101.7359 147° Southeast  Level Estimated
08:59PM 23.1313 -101.6281 147° Southeast  Level Estimated
09:00PM 22.9803 -101.5205 147° Southeast  Level Estimated
09:01PM 22.8293 -101.4131 147° Southeast  Level Estimated
09:02PM 22.6782 -101.3060 147° Southeast  Level Estimated
09:03PM 22.5270 -101.1991 147° Southeast  Level Estimated
09:04PM 22.3757 -101.0925 147° Southeast  Level Estimated
09:05PM 22.2244 -100.9861 147° Southeast  Level Estimated
09:06PM 22.0730 -100.8799 147° Southeast  Level Estimated
09:07PM 21.9215 -100.7739 147° Southeast  Level Estimated
09:08PM 21.7700 -100.6682 147° Southeast  Level Estimated
09:09PM 21.6184 -100.5626 147° Southeast  Level Estimated
09:10PM 21.4667 -100.4573 147° Southeast  Level Estimated
09:11PM 21.3150 -100.3523 147° Southeast  Level Estimated
09:11PM 22.8800 -101.3860 147° Southeast 432 497 39,000  Level FlightAware
09:12PM 22.7960 -101.3240 146° Southeast 434 499 39,000  Level FlightAware
09:13PM 22.7490 -101.2880 145° Southeast 434 499 39,000  Level FlightAware
09:13PM 22.6970 -101.2480 145° Southeast 434 499 39,000  Level FlightAware
09:14PM 22.6470 -101.2100 145° Southeast 434 499 39,000  Level FlightAware
09:14PM 22.5960 -101.1720 145° Southeast 434 499 39,000  Level FlightAware
09:15PM 22.4890 -101.1000 148° Southeast 430 495 39,000  Level FlightAware
09:16PM 22.4290 -101.0570 146° Southeast 430 495 39,000  Level FlightAware
09:16PM 22.3730 -101.0160 146° Southeast 429 494 39,000  Level FlightAware
09:17PM 22.3140 -100.9720 145° Southeast 429 494 39,000  Level FlightAware
09:17PM 22.2580 -100.9250 142° Southeast 424 488 39,000  Level FlightAware
09:18PM 22.2210 -100.8650 124° Southeast 420 483 39,000  Level FlightAware
09:19PM 22.1870 -100.8030 121° Southeast 422 486 39,000  Level FlightAware
09:19PM 22.1520 -100.7380 120° Southeast 423 487 39,000  Level FlightAware
09:20PM 22.1320 -100.7020 121° Southeast 424 488 39,000  Level FlightAware
09:20PM 22.0810 -100.6070 120° Southeast 426 490 39,000  Level FlightAware
09:21PM 22.0470 -100.5450 121° Southeast 427 491 39,000  Level FlightAware
09:22PM 22.0000 -100.4860 131° Southeast 435 501 39,000  Level FlightAware
09:22PM 21.9700 -100.4640 146° Southeast 439 505 39,000  Level FlightAware
09:23PM 21.8840 -100.4070 148° Southeast 435 501 39,000  Level FlightAware
09:23PM 21.8280 -100.3710 149° Southeast 435 501 39,000  Level FlightAware
09:24PM 21.7670 -100.3310 149° Southeast 434 499 39,000  Level FlightAware
09:24PM 21.7140 -100.2970 149° Southeast 433 498 39,000  Level FlightAware
09:25PM 21.6500 -100.2550 149° Southeast 431 496 39,000  Level FlightAware
09:26PM 21.5880 -100.2140 148° Southeast 430 495 39,000  Level FlightAware
09:26PM 21.5280 -100.1740 148° Southeast 430 495 39,000  Level FlightAware
09:27PM 21.4630 -100.1330 150° Southeast 428 493 39,000  Level FlightAware
09:27PM 21.4060 -100.0950 148° Southeast 428 493 39,000  Level FlightAware
09:28PM 21.3540 -100.0600 148° Southeast 428 493 39,000  Level FlightAware
09:29PM 21.3030 -100.0260 148° Southeast 428 493 39,000  Level FlightAware
09:29PM 21.2510 -99.9910 148° Southeast 428 493 39,000  Level FlightAware
09:30PM 21.1990 -99.9560 148° Southeast 428 493 39,000  Level FlightAware
09:31PM 21.1460 -99.9200 148° Southeast 428 493 39,000  Level FlightAware
09:31PM 21.0940 -99.8860 149° Southeast 428 493 39,000  Level FlightAware
09:32PM 21.0460 -99.8540 148° Southeast 428 493 39,000  Level FlightAware
09:32PM 20.9930 -99.8180 148° Southeast 428 493 39,000  Level FlightAware
09:33PM 20.9420 -99.7840 148° Southeast 428 493 39,000  Level FlightAware
09:34PM 20.8890 -99.7480 148° Southeast 428 493 39,000  Level FlightAware
09:34PM 20.8360 -99.7130 148° Southeast 428 493 39,000 -6,840 Level FlightAware
09:35PM 20.6730 -99.6220 152° Southeast 436 502 31,500 -6,540 Descending FlightAware
09:35PM 20.6140 -99.5840 149° Southeast 436 502 31,500  Level FlightAware
09:36PM 20.5620 -99.5490 148° Southeast 436 502 31,500  Level FlightAware
09:37PM 20.5080 -99.5130 148° Southeast 436 502 31,500  Level FlightAware
09:37PM 20.4540 -99.4770 148° Southeast 436 502 31,500  Level FlightAware
09:38PM 20.4010 -99.4410 148° Southeast 436 502 31,500  Level FlightAware
09:38PM 20.3480 -99.4060 148° Southeast 436 502 31,500  Level FlightAware
09:39PM 20.2960 -99.3710 148° Southeast 436 502 31,500  Level FlightAware
09:40PM 20.2390 -99.3330 148° Southeast 436 502 31,500  Level FlightAware
09:40PM 20.1870 -99.2990 148° Southeast 436 502 31,500  Level FlightAware
09:41PM 20.1350 -99.2640 148° Southeast 436 502 31,500  Level FlightAware
09:41PM 20.0820 -99.2290 148° Southeast 436 502 31,500  Level FlightAware
09:42PM 20.0280 -99.1930 148° Southeast 436 502 31,500  Level FlightAware
09:43PM 19.9750 -99.1570 147° Southeast 436 502 31,500  Level FlightAware
09:43PM 19.9220 -99.1230 149° Southeast 436 502 31,500 -16,860 Level FlightAware
09:44PM 19.7760 -99.2700 223° Southwest 357 411 14,100 -18,300 Descending FlightAware
09:44PM 19.7190 -99.2590 170° South 349 402 12,600 -1,980 Descending FlightAware
09:45PM 19.6660 -99.2500 171° South 327 376 11,800 -780 Descending FlightAware
09:45PM 19.6160 -99.2400 169° South 285 328 11,700 -120 Descending FlightAware
09:46PM 19.5750 -99.2320 170° South 235 270 11,700  Level FlightAware
09:47PM 19.5410 -99.2250 169° South 213 245 11,700 -300 Level FlightAware
09:47PM 19.5060 -99.2150 165° South 205 236 11,400 -960 Descending FlightAware
09:48PM 19.4740 -99.2070 167° South 210 242 10,600 -1,200 Descending FlightAware
09:48PM 19.4390 -99.1970 165° South 211 243 10,000 -1,080 Descending FlightAware
09:49PM 19.4200 -99.1920 166° South 210 242 9,600 -1,080 Descending FlightAware
09:49PM 19.4010 -99.1880 169° South 202 232 9,300 -1,200 Descending FlightAware
09:49PM 19.3880 -99.1820 156° South 192 221 8,900 -1,200 Descending FlightAware
09:49PM 19.3860 -99.1790 125° Southeast 184 212 8,900  Level FlightAware
09:50PM 19.3830 -99.1740 122° Southeast 172 198 8,900 -480 Level FlightAware
09:50PM 19.3820 -99.1680 100° East 171 197 8,800 -1,200 Descending FlightAware
09:50PM 19.3880 -99.1540 66° East 158 182 8,400 -960 Descending FlightAware
09:50PM 19.3980 -99.1390 55° Northeast 158 182 8,100 -720 Descending FlightAware
09:51PM 19.4040 -99.1270 62° Northeast 159 183 7,900 -780 Descending FlightAware
09:51PM 19.4120 -99.1120 61° Northeast 154 177 7,600 -360 Descending FlightAware
09:51PM 19.4210 -99.0970 58° Northeast 153 176 7,600  Level FlightAware
09:54PM 19.4363 -99.0721 57° Northeast  Level Estimated